To NAV CANADA Home Page Login to a new session Search on AWWS site Feedback and Comments Disclaimer Vers la page française équivalente Tips FAQ What's new on the site To the Forecasts and Observations / NOTAM section To "File a Flight Plan" website Publications and other links Update of the User's profile FIC Telephone Numbers My Weather Data Folder Route Weather Data Regional Weather Data Local Weather Data To the Forecasts and Observations / NOTAM section
Request Generated 02/23/2017 at 20:47:12 UTC . Weather information available at that time is displayed.

METAR/TAF

CHURCHILL/MB    (show WxCam)

METAR CYYQ 232000Z 32006KT 15SM SCT250 M21/M23 A3032 RMK CI4 SLP275=
METAR CYYQ 231900Z 34006KT 15SM SCT240 M21/M23 A3031 RMK CI4 SLP272=
METAR CYYQ 231800Z 34006KT 15SM SCT240 M21/M24 A3031 RMK CI4 SLP270=

TAF CYYQ 231746Z 2318/2418 35008KT P6SM BKN220
FM240800 VRB03KT P6SM BKN220 PROB30 2408/2418 2SM BR BKN006
RMK NXT FCST BY 240000Z=
Your time UTC time
Weather data provided by Environment Canada and NAV CANADA